createdAt,value
2017-05-12T00:00:42.123Z,91.57
2017-05-12T00:01:52.070Z,91.33
2017-05-12T00:03:02.325Z,91.62
2017-05-12T00:04:12.526Z,91.9
2017-05-12T00:05:22.780Z,92
2017-05-12T00:06:33.038Z,91.81
2017-05-12T00:07:42.985Z,91.9
2017-05-12T00:08:53.250Z,92.66
2017-05-12T00:10:05.457Z,92.47
2017-05-12T00:11:15.718Z,92.19
2017-05-12T00:12:25.985Z,92.94
2017-05-12T00:13:36.266Z,92.66
2017-05-12T00:14:46.524Z,93.04
2017-05-12T00:15:56.715Z,92.57
2017-05-12T00:17:06.663Z,92.94
2017-05-12T00:18:16.920Z,92.85
2017-05-12T00:19:27.178Z,92.66
2017-05-12T00:20:37.440Z,92.94
2017-05-12T00:21:47.594Z,92.76
2017-05-12T00:22:57.865Z,92.28
2017-05-12T00:24:08.136Z,92.09
2017-05-12T00:25:18.397Z,91.81
2017-05-12T00:26:28.656Z,92.09
2017-05-12T00:27:39.265Z,92.38
2017-05-12T00:28:49.532Z,92.09
2017-05-12T00:29:59.790Z,92
2017-05-12T00:31:09.738Z,91.9
2017-05-12T00:32:19.995Z,92.09
2017-05-12T00:33:30.455Z,92
2017-05-12T00:34:40.717Z,92
2017-05-12T00:35:50.976Z,91.52
2017-05-12T00:37:01.236Z,91.62
2017-05-12T00:38:11.182Z,91.57
2017-05-12T00:39:21.752Z,92.28
2017-05-12T00:40:32.014Z,91.52
2017-05-12T00:41:42.280Z,91.57
2017-05-12T00:42:52.552Z,91.09
2017-05-12T00:44:02.812Z,91.09
2017-05-12T00:45:13.077Z,90.62
2017-05-12T00:46:23.338Z,90.62
2017-05-12T00:47:33.287Z,90.34
2017-05-12T00:48:43.546Z,90.15
2017-05-12T00:49:53.849Z,90.34
2017-05-12T00:51:04.358Z,90.15
2017-05-12T00:52:14.312Z,90.15
2017-05-12T00:53:24.254Z,90.05
2017-05-12T00:54:34.519Z,89.67
2017-05-12T00:55:44.778Z,89.77
2017-05-12T00:56:54.924Z,89.77
2017-05-12T00:58:04.867Z,89.96
2017-05-12T00:59:14.812Z,90.15
2017-05-12T01:00:25.076Z,90.05
2017-05-12T01:01:35.338Z,90.15
2017-05-12T01:02:47.855Z,89.86
2017-05-12T01:03:58.124Z,89.91
2017-05-12T01:05:08.393Z,89.77
2017-05-12T01:06:18.656Z,89.86
2017-05-12T01:07:28.284Z,89.53
2017-05-12T01:08:38.853Z,89.86
2017-05-12T01:09:48.805Z,89.34
2017-05-12T01:10:59.071Z,88.96
2017-05-12T01:12:09.335Z,89.06
2017-05-12T01:13:19.595Z,88.87
2017-05-12T01:14:29.794Z,89.15
2017-05-12T01:15:40.062Z,88.96
2017-05-12T01:16:50.003Z,89.34
2017-05-12T01:17:59.956Z,89.72
2017-05-12T01:19:09.906Z,89.82
2017-05-12T01:20:20.466Z,90.01
2017-05-12T01:21:30.729Z,89.53
2017-05-12T01:22:40.679Z,89.72
2017-05-12T01:23:50.937Z,89.91
2017-05-12T01:25:01.195Z,89.91
2017-05-12T01:26:11.708Z,90.2
2017-05-12T01:27:21.976Z,90.01
2017-05-12T01:28:32.243Z,90.29
2017-05-12T01:29:42.505Z,90.2
2017-05-12T01:30:52.459Z,90.1
2017-05-12T01:32:05.023Z,90.29
2017-05-12T01:33:15.294Z,90.77
2017-05-12T01:34:25.552Z,90.77
2017-05-12T01:35:35.810Z,91.33
2017-05-12T01:36:46.068Z,91.52
2017-05-12T01:37:56.528Z,91.43
2017-05-12T01:39:06.792Z,91.33
2017-05-12T01:40:17.051Z,91.43
2017-05-12T01:41:26.995Z,91.43
2017-05-12T01:42:37.248Z,91.81
2017-05-12T01:43:47.816Z,92
2017-05-12T01:44:58.075Z,91.62
2017-05-12T01:46:08.022Z,91.71
2017-05-12T01:47:18.291Z,91.9
2017-05-12T01:48:28.558Z,91.9
2017-05-12T01:49:39.068Z,91.71
2017-05-12T01:50:49.333Z,91.9
2017-05-12T01:51:59.592Z,91.14
2017-05-12T01:53:09.860Z,91.05
2017-05-12T01:54:20.120Z,90.01
2017-05-12T01:55:30.371Z,90.01
2017-05-12T01:56:40.315Z,90.29
2017-05-12T01:57:50.582Z,90.77
2017-05-12T01:59:00.850Z,90.67
2017-05-12T02:00:10.798Z,90.58
2017-05-12T02:01:20.941Z,90.77
2017-05-12T02:02:31.203Z,90.95
2017-05-12T02:03:41.477Z,91.52
2017-05-12T02:04:51.745Z,90.77
2017-05-12T02:06:02.009Z,90.58
2017-05-12T02:07:12.570Z,90.67
2017-05-12T02:08:22.849Z,91.24
2017-05-12T02:09:32.797Z,90.58
2017-05-12T02:10:43.058Z,90.67
2017-05-12T02:11:53.314Z,90.95
2017-05-12T02:13:03.469Z,91.62
2017-05-12T02:14:13.417Z,91.43
2017-05-12T02:15:23.732Z,91.81
2017-05-12T02:16:33.998Z,91.81
2017-05-12T02:17:44.252Z,91.81
2017-05-12T02:18:54.500Z,91.62
2017-05-12T02:20:04.753Z,91.62
2017-05-12T02:21:14.698Z,91.43
2017-05-12T02:22:24.959Z,91.9
2017-05-12T02:23:34.909Z,91.05
2017-05-12T02:24:45.371Z,91.71
2017-05-12T02:25:55.637Z,91.33
2017-05-12T02:27:05.579Z,91.52
2017-05-12T02:28:15.529Z,91.62
2017-05-12T02:29:25.781Z,91.33
2017-05-12T02:30:36.338Z,91.24
2017-05-12T02:31:46.602Z,91.43
2017-05-12T02:32:56.877Z,91.52
2017-05-12T02:34:06.505Z,91.43
2017-05-12T02:35:16.453Z,91.62
2017-05-12T02:36:27.020Z,91.81
2017-05-12T02:37:37.279Z,91.43
2017-05-12T02:38:47.539Z,91.24
2017-05-12T02:39:57.802Z,91.52
2017-05-12T02:41:07.773Z,91.71
2017-05-12T02:42:18.384Z,92.09
2017-05-12T02:43:28.642Z,92.28
2017-05-12T02:44:38.896Z,91.43
2017-05-12T02:45:49.151Z,92.28
2017-05-12T02:46:59.413Z,92.09
2017-05-12T02:48:09.083Z,92.47
2017-05-12T02:49:19.342Z,92.57
2017-05-12T02:50:29.292Z,92.85
2017-05-12T02:51:39.553Z,92.76
2017-05-12T02:52:49.813Z,93.04
2017-05-12T02:54:00.375Z,92.85
2017-05-12T02:55:10.640Z,92.38
2017-05-12T02:56:20.896Z,92.47
2017-05-12T02:57:31.154Z,91.52
2017-05-12T02:58:41.438Z,91.9
2017-05-12T02:59:51.956Z,91.24
2017-05-12T03:01:01.601Z,91.33
2017-05-12T03:02:11.898Z,91.62
2017-05-12T03:03:21.857Z,91.14
2017-05-12T03:04:31.849Z,89.82
2017-05-12T03:05:44.419Z,88.87
2017-05-12T03:06:54.679Z,89.25
2017-05-12T03:08:04.627Z,88.59
2017-05-12T03:09:14.884Z,88.21
2017-05-12T03:10:25.158Z,88.21
2017-05-12T03:11:35.666Z,88.3
2017-05-12T03:12:45.954Z,88.11
2017-05-12T03:13:56.217Z,87.83
2017-05-12T03:15:06.472Z,88.11
2017-05-12T03:16:16.732Z,88.68
2017-05-12T03:17:27.199Z,88.96
2017-05-12T03:18:37.463Z,88.87
2017-05-12T03:19:47.410Z,89.06
2017-05-12T03:20:57.680Z,89.72
2017-05-12T03:22:07.952Z,90.1
2017-05-12T03:23:18.513Z,90.29
2017-05-12T03:24:28.462Z,90.58
2017-05-12T03:25:38.727Z,90.48
2017-05-12T03:26:48.987Z,90.39
2017-05-12T03:27:59.250Z,90.77
2017-05-12T03:29:09.761Z,90.77
2017-05-12T03:30:19.715Z,91.62
2017-05-12T03:31:29.972Z,91.62
2017-05-12T03:32:39.919Z,91.14
2017-05-12T03:33:50.224Z,91.33
2017-05-12T03:35:00.779Z,91.43
2017-05-12T03:36:11.051Z,91.52
2017-05-12T03:37:21.318Z,91.52
2017-05-12T03:38:31.260Z,91.9
2017-05-12T03:39:41.521Z,92.57
2017-05-12T03:40:52.086Z,92.66
2017-05-12T03:42:01.719Z,92.94
2017-05-12T03:43:11.348Z,92.47
2017-05-12T03:44:21.650Z,92.57
2017-05-12T03:45:31.606Z,92.57
2017-05-12T03:46:42.217Z,92.57
2017-05-12T03:47:52.168Z,92.47
2017-05-12T03:49:01.809Z,92.85
2017-05-12T03:50:12.066Z,92.66
2017-05-12T03:51:22.328Z,93.23
2017-05-12T03:52:32.839Z,92.94
2017-05-12T03:53:43.107Z,93.04
2017-05-12T03:54:53.371Z,93.13
2017-05-12T03:56:03.635Z,93.42
2017-05-12T03:57:13.588Z,92.94
2017-05-12T03:58:23.515Z,93.23
2017-05-12T03:59:33.783Z,93.32
2017-05-12T04:00:44.051Z,93.13
2017-05-12T04:01:54.000Z,92.76
2017-05-12T04:03:04.276Z,93.13
2017-05-12T04:04:14.834Z,92.94
2017-05-12T04:05:25.091Z,93.32
2017-05-12T04:06:34.728Z,92.85
2017-05-12T04:07:44.988Z,92.66
2017-05-12T04:08:55.274Z,92.38
2017-05-12T04:10:07.735Z,92.94
2017-05-12T04:11:17.995Z,92.76
2017-05-12T04:12:27.940Z,92.66
2017-05-12T04:13:38.205Z,93.04
2017-05-12T04:14:48.508Z,93.23
2017-05-12T04:15:59.066Z,93.04
2017-05-12T04:17:09.334Z,93.08
2017-05-12T04:18:19.597Z,92.9
2017-05-12T04:19:29.862Z,92.71
2017-05-12T04:20:39.810Z,92.61
2017-05-12T04:21:50.316Z,92.33
2017-05-12T04:23:00.613Z,92.14
2017-05-12T04:24:10.246Z,92.33
2017-05-12T04:25:20.192Z,91.66
2017-05-12T04:26:30.177Z,92.42
2017-05-12T04:27:42.684Z,92.14
2017-05-12T04:28:52.634Z,91.66
2017-05-12T04:30:02.913Z,91.85
2017-05-12T04:31:12.874Z,91.66
2017-05-12T04:32:23.131Z,91.57
2017-05-12T04:33:33.381Z,91.66
2017-05-12T04:34:43.332Z,92.14
2017-05-12T04:35:53.599Z,92.42
2017-05-12T04:37:03.868Z,92.71
2017-05-12T04:38:13.816Z,92.52
2017-05-12T04:39:24.385Z,92.9
2017-05-12T04:40:34.640Z,92.33
2017-05-12T04:41:44.904Z,92.71
2017-05-12T04:42:54.843Z,92.61
2017-05-12T04:44:05.108Z,92.61
2017-05-12T04:45:15.310Z,92.14
2017-05-12T04:46:25.576Z,92.33
2017-05-12T04:47:35.533Z,92.33
2017-05-12T04:48:45.796Z,92.14
2017-05-12T04:49:56.059Z,91.47
2017-05-12T04:51:06.299Z,91.85
2017-05-12T04:52:16.246Z,91.38
2017-05-12T04:53:26.506Z,91.38
2017-05-12T04:54:36.141Z,91.47
2017-05-12T04:55:46.404Z,91.38
2017-05-12T04:56:56.919Z,91.28
2017-05-12T04:58:06.873Z,91.19
2017-05-12T04:59:17.133Z,91.38
2017-05-12T05:00:27.422Z,91.85
2017-05-12T05:01:37.691Z,92.71
2017-05-12T05:02:48.155Z,92.42
2017-05-12T05:03:58.118Z,93.27
2017-05-12T05:05:08.380Z,92.8
2017-05-12T05:06:18.635Z,93.46
2017-05-12T05:07:28.581Z,93.7
2017-05-12T05:08:38.828Z,93.84
2017-05-12T05:09:49.100Z,94.18
2017-05-12T05:10:59.354Z,94.37
2017-05-12T05:12:09.614Z,94.27
2017-05-12T05:13:18.938Z,94.74
2017-05-12T05:14:29.140Z,94.84
2017-05-12T05:15:39.410Z,93.99
2017-05-12T05:16:49.669Z,93.94
2017-05-12T05:17:59.307Z,93.65
2017-05-12T05:19:09.611Z,93.94
2017-05-12T05:20:19.864Z,93.46
2017-05-12T05:21:29.824Z,93.08
2017-05-12T05:22:40.087Z,92.99
2017-05-12T05:23:50.357Z,93.08
2017-05-12T05:25:00.825Z,93.04
2017-05-12T05:26:11.629Z,92.94
2017-05-12T05:27:21.890Z,93.04
2017-05-12T05:28:32.152Z,93.04
2017-05-12T05:29:42.406Z,93.32
2017-05-12T05:30:52.663Z,93.13
2017-05-12T05:32:03.278Z,92.85
2017-05-12T05:33:13.540Z,93.04
2017-05-12T05:34:23.494Z,92.94
2017-05-12T05:35:33.755Z,92.94
2017-05-12T05:36:44.015Z,93.18
2017-05-12T05:37:54.178Z,93.46
2017-05-12T05:39:04.450Z,92.61
2017-05-12T05:40:14.710Z,92.99
2017-05-12T05:41:24.659Z,93.18
2017-05-12T05:42:34.919Z,92.99
2017-05-12T05:43:45.431Z,93.23
2017-05-12T05:44:55.382Z,92.42
2017-05-12T05:46:05.647Z,92.28
2017-05-12T05:47:15.594Z,92.52
2017-05-12T05:48:25.551Z,92.14
2017-05-12T05:49:35.799Z,92.61
2017-05-12T05:50:46.065Z,91.76
2017-05-12T05:51:56.328Z,91.19
2017-05-12T05:53:05.965Z,91.57
2017-05-12T05:54:16.226Z,91.19
2017-05-12T05:55:26.420Z,90.72
2017-05-12T05:56:36.381Z,90.72
2017-05-12T05:57:46.662Z,90.62
2017-05-12T05:58:56.606Z,91.66
2017-05-12T06:00:06.909Z,91.09
2017-05-12T06:01:17.430Z,90.24
2017-05-12T06:02:27.388Z,89.58
2017-05-12T06:03:37.095Z,89.58
2017-05-12T06:04:47.365Z,89.77
2017-05-12T06:05:57.623Z,90.34
2017-05-12T06:07:08.146Z,90.05
2017-05-12T06:08:18.409Z,90.05
2017-05-12T06:09:28.677Z,89.06
2017-05-12T06:10:38.625Z,89.25
2017-05-12T06:11:48.263Z,88.87
2017-05-12T06:12:58.775Z,89.25
2017-05-12T06:14:09.037Z,88.2
2017-05-12T06:15:19.035Z,87.82
2017-05-12T06:16:28.998Z,87.06
2017-05-12T06:17:39.260Z,86.91
2017-05-12T06:18:51.843Z,86.54
2017-05-12T06:20:01.793Z,86.16
2017-05-12T06:21:12.058Z,86.07
2017-05-12T06:22:22.317Z,85.21
2017-05-12T06:23:32.260Z,85.02
2017-05-12T06:24:42.534Z,84.45
2017-05-12T06:25:52.801Z,84.45
2017-05-12T06:27:03.067Z,84.01
2017-05-12T06:28:13.063Z,84.01
2017-05-12T06:29:23.011Z,83.26
2017-05-12T06:30:33.472Z,82.31
2017-05-12T06:31:43.733Z,82.5
2017-05-12T06:32:54.003Z,81.74
2017-05-12T06:34:04.273Z,80.6
2017-05-12T06:35:14.219Z,80.32
2017-05-12T06:36:24.154Z,79.65
2017-05-12T06:37:34.416Z,80.51
2017-05-12T06:38:44.681Z,80.6
2017-05-12T06:39:54.949Z,80.51
2017-05-12T06:41:04.903Z,78.99
2017-05-12T06:42:15.104Z,78.51
2017-05-12T06:43:25.061Z,78.7
2017-05-12T06:44:35.325Z,78.99
2017-05-12T06:45:45.584Z,79.03
2017-05-12T06:46:55.530Z,79.12
2017-05-12T06:48:05.782Z,79.22
2017-05-12T06:49:15.741Z,77.89
2017-05-12T06:50:26.003Z,77.6
2017-05-12T06:51:35.971Z,77.79
2017-05-12T06:52:46.232Z,77.12
2017-05-12T06:53:56.746Z,76.18
2017-05-12T06:55:07.008Z,76.65
2017-05-12T06:56:17.277Z,76.46
2017-05-12T06:57:27.226Z,76.08
2017-05-12T06:58:37.245Z,75.6
2017-05-12T06:59:47.813Z,75.99
2017-05-12T07:00:58.083Z,75.79
2017-05-12T07:02:08.351Z,75.32
2017-05-12T07:03:17.987Z,76.18
2017-05-12T07:04:28.260Z,75.79
2017-05-12T07:05:38.822Z,75.6
2017-05-12T07:06:49.097Z,76.18
2017-05-12T07:07:59.367Z,76.37
2017-05-12T07:09:09.008Z,76.08
2017-05-12T07:10:19.274Z,75.79
2017-05-12T07:11:29.473Z,75.99
2017-05-12T07:12:39.746Z,75.51
2017-05-12T07:13:50.017Z,74.85
2017-05-12T07:14:59.977Z,73.99
2017-05-12T07:16:10.243Z,74.37
2017-05-12T07:17:23.709Z,74.37
2017-05-12T07:18:33.974Z,73.8
2017-05-12T07:19:44.286Z,74.75
2017-05-12T07:20:54.543Z,74.94
2017-05-12T07:22:04.496Z,74.18
2017-05-12T07:23:15.110Z,74.08
2017-05-12T07:24:25.056Z,73.9
2017-05-12T07:25:35.316Z,74.37
2017-05-12T07:26:45.574Z,74.37
2017-05-12T07:27:55.527Z,74.66
2017-05-12T07:29:05.726Z,74.75
2017-05-12T07:30:15.672Z,75.23
2017-05-12T07:31:25.620Z,75.04
2017-05-12T07:32:35.890Z,74.75
2017-05-12T07:33:46.151Z,74.94
2017-05-12T07:34:56.710Z,75.51
2017-05-12T07:36:06.980Z,73.52
2017-05-12T07:37:16.624Z,73.33
2017-05-12T07:38:26.888Z,73.04
2017-05-12T07:39:36.840Z,72.28
2017-05-12T07:40:47.041Z,73.42
2017-05-12T07:41:57.303Z,73.42
2017-05-12T07:43:07.570Z,72.38
2017-05-12T07:44:17.835Z,72.47
2017-05-12T07:45:27.834Z,72.56
2017-05-12T07:46:38.346Z,71.14
2017-05-12T07:47:48.293Z,71.23
2017-05-12T07:48:58.558Z,70.95
2017-05-12T07:50:08.510Z,71.71
2017-05-12T07:51:18.455Z,71.52
2017-05-12T07:52:29.021Z,70.86
2017-05-12T07:53:38.966Z,70.7
2017-05-12T07:54:49.230Z,70.61
2017-05-12T07:55:59.489Z,70.86
2017-05-12T07:57:09.137Z,71.04
2017-05-12T07:58:19.392Z,71.08
2017-05-12T07:59:29.342Z,70.67
2017-05-12T08:00:39.606Z,70.48
2017-05-12T08:01:49.550Z,70.76
2017-05-12T08:02:59.808Z,71.43
2017-05-12T08:04:12.143Z,71.9
2017-05-12T08:05:22.093Z,71.52
2017-05-12T08:06:32.363Z,71.18
2017-05-12T08:07:42.635Z,71.75
2017-05-12T08:08:52.590Z,70.7
2017-05-12T08:10:03.105Z,70.7
2017-05-12T08:11:13.374Z,70.79
2017-05-12T08:12:23.320Z,70.79
2017-05-12T08:13:33.581Z,70.13
2017-05-12T08:14:43.846Z,69.75
2017-05-12T08:15:54.414Z,70.23
2017-05-12T08:17:04.687Z,70.99
2017-05-12T08:18:14.994Z,69.75
2017-05-12T08:19:24.629Z,69.75
2017-05-12T08:20:34.580Z,69.56
2017-05-12T08:21:45.101Z,68.99
2017-05-12T08:22:55.372Z,68.9
2017-05-12T08:24:05.636Z,69.66
2017-05-12T08:25:15.900Z,69.46
2017-05-12T08:26:25.542Z,68.52
2017-05-12T08:27:35.741Z,67.76
2017-05-12T08:28:46.009Z,67.38
2017-05-12T08:29:56.279Z,66.74
2017-05-12T08:31:05.283Z,66.55
2017-05-12T08:32:15.548Z,67.28
2017-05-12T08:33:26.007Z,68.04
2017-05-12T08:34:36.268Z,67.98
2017-05-12T08:35:46.589Z,68.07
2017-05-12T08:36:56.535Z,69.5
2017-05-12T08:38:06.175Z,68.65
2017-05-12T08:39:16.735Z,69.02
2017-05-12T08:40:26.997Z,68.07
2017-05-12T08:41:36.944Z,68.46
2017-05-12T08:42:47.212Z,66.74
2017-05-12T08:43:57.486Z,67.22
2017-05-12T08:45:07.746Z,67.5
2017-05-12T08:46:17.694Z,66.65
2017-05-12T08:47:27.953Z,67.32
2017-05-12T08:48:37.900Z,67.22
2017-05-12T08:49:48.168Z,68.07
2017-05-12T08:50:58.364Z,68.01
2017-05-12T08:52:08.319Z,66.87
2017-05-12T08:53:18.277Z,67.16
2017-05-12T08:54:27.914Z,65.73
2017-05-12T08:55:38.182Z,64.59
2017-05-12T08:56:48.486Z,65.92
2017-05-12T08:57:58.781Z,64.97
2017-05-12T08:59:08.726Z,65.06
2017-05-12T09:00:18.361Z,63.76
2017-05-12T09:01:28.312Z,63.67
2017-05-12T09:02:38.799Z,63.76
2017-05-12T09:03:48.757Z,63.01
2017-05-12T09:04:58.710Z,62.43
2017-05-12T09:06:08.670Z,62.72
2017-05-12T09:07:18.942Z,62.91
2017-05-12T09:08:29.135Z,64.18
2017-05-12T09:09:39.403Z,64.08
2017-05-12T09:10:49.360Z,63.8
2017-05-12T09:11:59.313Z,63.6
2017-05-12T09:13:09.574Z,63.64
2017-05-12T09:14:19.829Z,61.64
2017-05-12T09:15:30.102Z,60.69
2017-05-12T09:16:40.049Z,60.11
2017-05-12T09:17:50.308Z,59.64
2017-05-12T09:19:00.572Z,60.02
2017-05-12T09:20:10.764Z,59.09
2017-05-12T09:21:20.718Z,58.62
2017-05-12T09:22:30.674Z,58.43
2017-05-12T09:23:40.943Z,58.52
2017-05-12T09:24:51.209Z,58.52
2017-05-12T09:26:01.782Z,58.14
2017-05-12T09:27:11.738Z,57.48
2017-05-12T09:28:22.004Z,57
2017-05-12T09:29:32.270Z,56.14
2017-05-12T09:30:42.532Z,55.47
2017-05-12T09:31:53.052Z,57.09
2017-05-12T09:33:03.372Z,58.24
2017-05-12T09:34:13.322Z,57.76
2017-05-12T09:35:23.278Z,56.43
2017-05-12T09:36:33.546Z,56.43
2017-05-12T09:37:44.168Z,56.81
2017-05-12T09:38:54.437Z,56.46
2017-05-12T09:40:04.710Z,57.12
2017-05-12T09:41:14.980Z,57.7
2017-05-12T09:42:25.252Z,57.5
2017-05-12T09:43:35.854Z,56.77
2017-05-12T09:44:46.126Z,56.38
2017-05-12T09:45:56.390Z,56.1
2017-05-12T09:47:06.656Z,54.67
2017-05-12T09:48:16.613Z,54.57
2017-05-12T09:49:27.194Z,56.48
2017-05-12T09:50:36.834Z,56.58
2017-05-12T09:51:47.131Z,57.34
2017-05-12T09:52:57.076Z,55.62
2017-05-12T09:54:07.028Z,55.82
2017-05-12T09:55:19.758Z,55.34
2017-05-12T09:56:29.718Z,55.62
2017-05-12T09:57:39.715Z,53.91
2017-05-12T09:58:49.980Z,55.72
2017-05-12T10:00:00.246Z,54.57
2017-05-12T10:01:10.708Z,54.19
2017-05-12T10:02:20.665Z,53.14
2017-05-12T10:03:30.307Z,54.38
2017-05-12T10:04:40.261Z,55.05
2017-05-12T10:05:50.553Z,55.34
2017-05-12T10:07:00.758Z,55.53
2017-05-12T10:08:10.711Z,55.05
2017-05-12T10:09:20.664Z,54.86
2017-05-12T10:10:30.939Z,54.29
2017-05-12T10:11:41.211Z,54.22
2017-05-12T10:12:51.415Z,54.41
2017-05-12T10:14:01.683Z,54.41
2017-05-12T10:15:11.954Z,53.84
2017-05-12T10:16:21.949Z,54.03
2017-05-12T10:17:32.215Z,53.74
2017-05-12T10:18:42.829Z,54.5
2017-05-12T10:19:52.778Z,54.32
2017-05-12T10:21:03.038Z,54.13
2017-05-12T10:22:13.338Z,53.74
2017-05-12T10:23:22.976Z,53.93
2017-05-12T10:24:33.542Z,53.36
2017-05-12T10:25:43.501Z,53.27
2017-05-12T10:26:53.775Z,52.72
2017-05-12T10:28:04.042Z,52.43
2017-05-12T10:29:14.309Z,52.43
2017-05-12T10:30:24.566Z,51.93
2017-05-12T10:31:34.837Z,52.5
2017-05-12T10:32:44.476Z,52.03
2017-05-12T10:33:54.744Z,50.4
2017-05-12T10:35:04.698Z,50.69
2017-05-12T10:36:15.177Z,52.05
2017-05-12T10:37:25.444Z,51.67
2017-05-12T10:38:35.720Z,51.95
2017-05-12T10:39:45.743Z,51.09
2017-05-12T10:40:56.008Z,51.09
2017-05-12T10:42:06.481Z,51
2017-05-12T10:43:16.745Z,50.84
2017-05-12T10:44:26.702Z,50.07
2017-05-12T10:45:36.961Z,50.55
2017-05-12T10:46:46.915Z,50.35
2017-05-12T10:47:57.228Z,49.43
2017-05-12T10:49:07.497Z,49.62
2017-05-12T10:50:17.771Z,48.95
2017-05-12T10:51:28.037Z,49.14
2017-05-12T10:52:38.312Z,48.18
2017-05-12T10:53:48.889Z,48.57
2017-05-12T10:54:59.167Z,48.95
2017-05-12T10:56:09.130Z,47.8
2017-05-12T10:57:19.404Z,47.52
2017-05-12T10:58:29.357Z,48.18
2017-05-12T10:59:39.350Z,46.66
2017-05-12T11:00:49.616Z,47.71
2017-05-12T11:01:59.887Z,47.3
2017-05-12T11:03:10.158Z,47.23
2017-05-12T11:04:20.113Z,47.52
2017-05-12T11:05:30.684Z,47.13
2017-05-12T11:06:40.950Z,47.97
2017-05-12T11:07:51.216Z,48.25
2017-05-12T11:09:01.485Z,47.97
2017-05-12T11:10:11.433Z,47.97
2017-05-12T11:11:21.589Z,48.07
2017-05-12T11:12:31.856Z,47.87
2017-05-12T11:13:42.149Z,47.78
2017-05-12T11:14:52.419Z,47.78
2017-05-12T11:16:02.695Z,48.07
2017-05-12T11:17:12.948Z,47.68
2017-05-12T11:18:22.901Z,47.97
2017-05-12T11:19:32.553Z,48.35
2017-05-12T11:20:42.817Z,48.25
2017-05-12T11:21:53.113Z,48.54
2017-05-12T11:23:06.855Z,48.44
2017-05-12T11:24:16.816Z,48.16
2017-05-12T11:25:27.084Z,47.87
2017-05-12T11:26:37.040Z,46.53
2017-05-12T11:27:46.993Z,46.15
2017-05-12T11:28:57.565Z,46.89
2017-05-12T11:30:07.886Z,47.75
2017-05-12T11:31:17.847Z,48.04
2017-05-12T11:32:27.804Z,47.78
2017-05-12T11:33:38.084Z,47.66
2017-05-12T11:34:48.294Z,47.58
2017-05-12T11:35:58.567Z,47.3
2017-05-12T11:37:08.832Z,47.78
2017-05-12T11:38:18.797Z,47.01
2017-05-12T11:39:29.077Z,46.34
2017-05-12T11:40:39.332Z,46.34
2017-05-12T11:41:49.602Z,46.53
2017-05-12T11:42:59.909Z,46.25
2017-05-12T11:44:10.176Z,46.44
2017-05-12T11:45:20.441Z,46.25
2017-05-12T11:46:30.386Z,46.92
2017-05-12T11:47:40.699Z,47.97
2017-05-12T11:48:50.647Z,46.92
2017-05-12T11:50:00.922Z,46.72
2017-05-12T11:51:11.197Z,46.72
2017-05-12T11:52:21.399Z,47.68
2017-05-12T11:53:31.352Z,47.39
2017-05-12T11:54:41.621Z,46.63
2017-05-12T11:55:51.887Z,47.01
2017-05-12T11:57:02.156Z,46.15
2017-05-12T11:58:12.778Z,45.79
2017-05-12T11:59:22.741Z,46.08
2017-05-12T12:00:32.703Z,45.22
2017-05-12T12:01:42.657Z,44.07
2017-05-12T12:02:52.921Z,43.43
2017-05-12T12:04:03.446Z,43.54
2017-05-12T12:05:13.401Z,42.8
2017-05-12T12:06:23.673Z,41.67
2017-05-12T12:07:33.631Z,40.56
2017-05-12T12:08:43.907Z,39.81
2017-05-12T12:09:53.852Z,39.73
2017-05-12T12:11:04.122Z,40.62
2017-05-12T12:12:14.397Z,39.66
2017-05-12T12:13:24.673Z,39.39
2017-05-12T12:14:34.944Z,38.43
2017-05-12T12:15:45.162Z,36.9
2017-05-12T12:16:55.441Z,36.9
2017-05-12T12:18:05.717Z,36.72
2017-05-12T12:19:15.991Z,35.49
2017-05-12T12:20:25.949Z,35.14
2017-05-12T12:21:36.475Z,33.33
2017-05-12T12:22:46.760Z,33.42
2017-05-12T12:23:57.042Z,33.33
2017-05-12T12:25:07.320Z,33.12
2017-05-12T12:26:17.600Z,33.5
2017-05-12T12:27:28.226Z,32.95
2017-05-12T12:28:38.501Z,32.78
2017-05-12T12:29:48.467Z,32.6
2017-05-12T12:30:58.743Z,31.81
2017-05-12T12:32:09.016Z,32.38
2017-05-12T12:33:21.233Z,32.78
2017-05-12T12:34:31.506Z,31.63
2017-05-12T12:35:41.830Z,31.56
2017-05-12T12:36:51.797Z,30.03
2017-05-12T12:38:02.075Z,30.99
2017-05-12T12:39:12.655Z,31.76
2017-05-12T12:40:22.623Z,30.22
2017-05-12T12:41:32.588Z,28.77
2017-05-12T12:42:42.236Z,29.34
2017-05-12T12:43:52.514Z,30.1
2017-05-12T12:45:03.051Z,30.46
2017-05-12T12:46:13.019Z,29.97
2017-05-12T12:47:22.983Z,30.64
2017-05-12T12:48:33.259Z,30.91
2017-05-12T12:49:43.226Z,31.78
2017-05-12T12:50:55.706Z,32.56
2017-05-12T12:52:05.982Z,32.07
2017-05-12T12:53:16.256Z,31.57
2017-05-12T12:54:26.568Z,31.65
2017-05-12T12:55:36.525Z,31.4
2017-05-12T12:56:47.114Z,30.34
2017-05-12T12:57:57.444Z,30.07
2017-05-12T12:59:07.720Z,29.71
2017-05-12T13:00:17.720Z,28.76
2017-05-12T13:01:28.003Z,28.58
2017-05-12T13:02:38.213Z,27.82
2017-05-12T13:03:48.181Z,27.82
2017-05-12T13:04:58.455Z,28.31
2017-05-12T13:06:08.732Z,28.03
2017-05-12T13:07:18.384Z,27.45
2017-05-12T13:08:29.020Z,27.45
2017-05-12T13:09:39.342Z,26.59
2017-05-12T13:10:49.622Z,27.55
2017-05-12T13:11:59.904Z,26.67
2017-05-12T13:13:09.872Z,25.99
2017-05-12T13:14:20.401Z,25.32
2017-05-12T13:15:30.676Z,25.51
2017-05-12T13:16:40.962Z,25.42
2017-05-12T13:17:50.926Z,26.68
2017-05-12T13:19:01.208Z,26.12
2017-05-12T13:20:11.426Z,24.97
2017-05-12T13:21:21.717Z,25.37
2017-05-12T13:22:31.686Z,26.16
2017-05-12T13:23:41.969Z,24.23
2017-05-12T13:24:51.938Z,25.09
2017-05-12T13:26:04.103Z,24.98
2017-05-12T13:27:14.388Z,24.97
2017-05-12T13:28:24.673Z,24.97
2017-05-12T13:29:34.959Z,25.15
2017-05-12T13:30:44.925Z,25.72
2017-05-12T13:31:55.510Z,24.93
2017-05-12T13:33:05.791Z,25.31
2017-05-12T13:34:15.754Z,26.82
2017-05-12T13:35:25.414Z,26.64
2017-05-12T13:36:35.693Z,27.39
2017-05-12T13:37:46.170Z,26.89
2017-05-12T13:38:56.444Z,27.55
2017-05-12T13:40:06.721Z,27.72
2017-05-12T13:41:16.683Z,27.82
2017-05-12T13:42:26.959Z,28.86
2017-05-12T13:43:37.531Z,29.54
2017-05-12T13:44:47.807Z,29.62
2017-05-12T13:45:58.088Z,30
2017-05-12T13:47:08.363Z,29.99
2017-05-12T13:48:18.327Z,30.57
2017-05-12T13:49:28.851Z,30.66
2017-05-12T13:50:39.142Z,30.28
2017-05-12T13:51:49.100Z,30.77
2017-05-12T13:52:59.377Z,30
2017-05-12T13:54:09.652Z,29.63
2017-05-12T13:55:20.287Z,29.63
2017-05-12T13:56:29.937Z,29.25
2017-05-12T13:57:40.210Z,29.06
2017-05-12T13:58:50.494Z,29.63
2017-05-12T14:00:00.463Z,29.17
2017-05-12T14:01:10.412Z,29.17
2017-05-12T14:02:20.377Z,26.67
2017-05-12T14:03:30.662Z,28.8
2017-05-12T14:04:40.625Z,27.75
2017-05-12T14:05:50.600Z,27.16
2017-05-12T14:07:01.120Z,27.83
2017-05-12T14:08:10.772Z,28.51
2017-05-12T14:09:21.040Z,27.64
2017-05-12T14:10:31.007Z,27.67
2017-05-12T14:11:40.971Z,28.08
2017-05-12T14:12:51.494Z,26.28
2017-05-12T14:14:01.769Z,26.67
2017-05-12T14:15:11.736Z,25.05
2017-05-12T14:16:22.011Z,25.25
2017-05-12T14:17:32.283Z,24.96
2017-05-12T14:18:44.874Z,24.86
2017-05-12T14:19:55.154Z,23.61
2017-05-12T14:21:05.121Z,23.43
2017-05-12T14:22:15.414Z,22.96
2017-05-12T14:23:25.071Z,22.49
2017-05-12T14:24:35.285Z,22.11
2017-05-12T14:25:44.946Z,20.95
2017-05-12T14:26:55.229Z,22.12
2017-05-12T14:28:05.196Z,22.3
2017-05-12T14:29:15.485Z,22.89
2017-05-12T14:30:26.062Z,22.78
2017-05-12T14:31:36.034Z,22.78
2017-05-12T14:32:46.013Z,22.2
2017-05-12T14:33:55.975Z,22.1
2017-05-12T14:35:06.252Z,22
2017-05-12T14:36:16.463Z,22.12
2017-05-12T14:37:26.745Z,22.71
2017-05-12T14:38:37.024Z,21.27
2017-05-12T14:39:46.686Z,21.18
2017-05-12T14:40:56.652Z,20.61
2017-05-12T14:42:07.293Z,19.06
2017-05-12T14:43:17.262Z,20.04
2017-05-12T14:44:27.546Z,19.85
2017-05-12T14:45:37.828Z,18.51
2017-05-12T14:46:48.110Z,18.42
2017-05-12T14:47:58.327Z,17.94
2017-05-12T14:49:08.294Z,18.52
2017-05-12T14:50:18.260Z,18.34
2017-05-12T14:51:28.228Z,18.05
2017-05-12T14:52:38.506Z,16.39
2017-05-12T14:53:49.101Z,17.47
2017-05-12T14:54:59.389Z,17.96
2017-05-12T14:56:09.671Z,17.76
2017-05-12T14:57:19.641Z,18.91
2017-05-12T14:58:29.609Z,18.62
2017-05-12T14:59:40.092Z,19
2017-05-12T15:00:50.066Z,18.43
2017-05-12T15:01:59.723Z,18.32
2017-05-12T15:03:10.007Z,17.72
2017-05-12T15:04:20.288Z,18.58
2017-05-12T15:05:30.557Z,19.06
2017-05-12T15:06:40.837Z,18.94
2017-05-12T15:07:50.805Z,20.18